createdAt,value
2023-01-30T00:00:23.174Z,1010.49
2023-01-30T00:01:23.165Z,1010.42
2023-01-30T00:02:23.184Z,1010.41
2023-01-30T00:03:23.134Z,1010.42
2023-01-30T00:04:23.121Z,1010.46
2023-01-30T00:05:23.161Z,1010.54
2023-01-30T00:06:23.130Z,1010.58
2023-01-30T00:07:23.088Z,1010.70
2023-01-30T00:08:23.077Z,1010.71
2023-01-30T00:09:23.096Z,1010.58
2023-01-30T00:10:25.790Z,1010.49
2023-01-30T00:11:23.063Z,1010.58
2023-01-30T00:12:23.029Z,1010.48
2023-01-30T00:13:23.027Z,1010.45
2023-01-30T00:14:23.013Z,1010.40
2023-01-30T00:15:23.001Z,1010.39
2023-01-30T00:16:23.086Z,1010.37
2023-01-30T00:17:22.979Z,1010.27
2023-01-30T00:18:22.972Z,1010.22
2023-01-30T00:19:22.957Z,1010.22
2023-01-30T00:20:22.948Z,1010.16
2023-01-30T00:21:22.944Z,1010.21
2023-01-30T00:22:22.923Z,1010.10
2023-01-30T00:23:22.922Z,1010.18
2023-01-30T00:24:22.978Z,1010.21
2023-01-30T00:25:23.004Z,1010.14
2023-01-30T00:26:22.915Z,1010.12
2023-01-30T00:27:22.868Z,1010.14
2023-01-30T00:28:22.854Z,1010.07
2023-01-30T00:29:22.854Z,1010.03
2023-01-30T00:30:22.889Z,1009.98
2023-01-30T00:31:22.897Z,1010.06
2023-01-30T00:32:22.821Z,1010.02
2023-01-30T00:33:22.804Z,1010.02
2023-01-30T00:34:22.789Z,1010.04
2023-01-30T00:35:22.784Z,1010.01
2023-01-30T00:36:22.781Z,1010.02
2023-01-30T00:37:22.763Z,1010.00
2023-01-30T00:38:22.748Z,1009.99
2023-01-30T00:39:22.738Z,1010.00
2023-01-30T00:40:22.727Z,1009.87
2023-01-30T00:41:22.757Z,1009.85
2023-01-30T00:42:22.707Z,1009.86
2023-01-30T00:43:22.699Z,1009.90
2023-01-30T00:44:22.678Z,1009.86
2023-01-30T00:45:22.674Z,1009.87
2023-01-30T00:46:22.668Z,1009.77
2023-01-30T00:47:22.650Z,1009.79
2023-01-30T00:48:22.640Z,1009.70
2023-01-30T00:49:22.632Z,1009.69
2023-01-30T00:50:22.615Z,1009.67
2023-01-30T00:51:22.619Z,1009.73
2023-01-30T00:52:22.599Z,1009.55
2023-01-30T00:53:22.581Z,1009.56
2023-01-30T00:54:22.575Z,1009.67
2023-01-30T00:55:22.565Z,1009.54
2023-01-30T00:56:22.577Z,1009.52
2023-01-30T00:57:22.543Z,1009.43
2023-01-30T00:58:22.548Z,1009.38
2023-01-30T00:59:22.521Z,1009.48
2023-01-30T01:00:22.508Z,1009.45
2023-01-30T01:01:22.543Z,1009.30
2023-01-30T01:02:22.507Z,1009.40
2023-01-30T01:03:22.521Z,1009.41
2023-01-30T01:04:22.464Z,1009.32
2023-01-30T01:05:22.458Z,1009.39
2023-01-30T01:06:22.448Z,1009.47
2023-01-30T01:07:22.433Z,1009.44
2023-01-30T01:08:22.418Z,1009.25
2023-01-30T01:09:22.408Z,1009.20
2023-01-30T01:10:22.397Z,1009.19
2023-01-30T01:11:22.404Z,1009.09
2023-01-30T01:12:22.373Z,1009.17
2023-01-30T01:13:22.369Z,1009.14
2023-01-30T01:14:22.351Z,1009.03
2023-01-30T01:15:22.348Z,1008.89
2023-01-30T01:16:22.360Z,1008.95
2023-01-30T01:17:22.334Z,1008.96
2023-01-30T01:18:22.313Z,1009.02
2023-01-30T01:19:22.300Z,1009.07
2023-01-30T01:20:22.283Z,1008.98
2023-01-30T01:21:22.286Z,1008.88
2023-01-30T01:22:22.269Z,1008.77
2023-01-30T01:23:22.265Z,1008.78
2023-01-30T01:24:22.239Z,1008.73
2023-01-30T01:25:22.251Z,1008.74
2023-01-30T01:26:22.287Z,1008.50
2023-01-30T01:27:22.220Z,1008.64
2023-01-30T01:28:22.197Z,1008.56
2023-01-30T01:29:22.193Z,1008.58
2023-01-30T01:30:22.172Z,1008.47
2023-01-30T01:31:22.249Z,1008.58
2023-01-30T01:32:22.159Z,1008.65
2023-01-30T01:33:22.149Z,1008.59
2023-01-30T01:34:22.134Z,1008.44
2023-01-30T01:35:22.124Z,1008.60
2023-01-30T01:36:51.555Z,1008.53
2023-01-30T01:37:22.115Z,1008.52
2023-01-30T01:38:22.085Z,1008.55
2023-01-30T01:39:22.083Z,1008.53
2023-01-30T01:40:22.067Z,1008.53
2023-01-30T01:41:22.051Z,1008.45
2023-01-30T01:42:22.055Z,1008.54
2023-01-30T01:43:22.033Z,1008.61
2023-01-30T01:44:22.024Z,1008.63
2023-01-30T01:45:22.007Z,1008.57
2023-01-30T01:46:22.000Z,1008.60
2023-01-30T01:47:21.996Z,1008.53
2023-01-30T01:48:21.977Z,1008.58
2023-01-30T01:49:21.960Z,1008.45
2023-01-30T01:50:21.957Z,1008.44
2023-01-30T01:51:21.938Z,1008.66
2023-01-30T01:52:21.956Z,1008.68
2023-01-30T01:53:21.922Z,1008.62
2023-01-30T01:54:21.918Z,1008.48
2023-01-30T01:55:21.904Z,1008.43
2023-01-30T01:56:21.889Z,1008.22
2023-01-30T01:57:21.886Z,1008.28
2023-01-30T01:58:21.870Z,1008.30
2023-01-30T01:59:21.857Z,1008.31
2023-01-30T02:00:21.843Z,1008.38
2023-01-30T02:01:21.852Z,1008.36
2023-01-30T02:02:21.855Z,1008.39
2023-01-30T02:03:21.809Z,1008.35
2023-01-30T02:04:21.801Z,1008.40
2023-01-30T02:05:21.788Z,1008.43
2023-01-30T02:06:21.772Z,1008.32
2023-01-30T02:07:21.791Z,1008.26
2023-01-30T02:08:21.756Z,1008.33
2023-01-30T02:09:21.747Z,1008.36
2023-01-30T02:10:21.736Z,1008.23
2023-01-30T02:11:21.745Z,1008.26
2023-01-30T02:12:21.723Z,1008.33
2023-01-30T02:13:21.706Z,1008.21
2023-01-30T02:14:21.687Z,1008.23
2023-01-30T02:15:21.679Z,1008.19
2023-01-30T02:16:21.674Z,1008.18
2023-01-30T02:17:21.702Z,1008.21
2023-01-30T02:18:21.651Z,1008.18
2023-01-30T02:19:21.652Z,1008.15
2023-01-30T02:20:21.621Z,1008.10
2023-01-30T02:21:21.613Z,1008.12
2023-01-30T02:22:21.614Z,1008.00
2023-01-30T02:23:21.592Z,1007.99
2023-01-30T02:24:21.583Z,1007.92
2023-01-30T02:25:21.567Z,1007.93
2023-01-30T02:26:21.578Z,1007.95
2023-01-30T02:31:01.239Z,1007.84
2023-01-30T02:31:53.645Z,1007.88
2023-01-30T02:32:53.564Z,1007.70
2023-01-30T02:33:53.559Z,1007.65
2023-01-30T02:34:53.542Z,1007.68
2023-01-30T02:35:53.531Z,1007.70
2023-01-30T02:36:53.529Z,1007.76
2023-01-30T02:37:53.512Z,1007.86
2023-01-30T02:38:53.494Z,1007.77
2023-01-30T02:39:53.488Z,1007.70
2023-01-30T02:40:53.474Z,1007.54
2023-01-30T02:41:53.475Z,1007.62
2023-01-30T02:42:53.454Z,1007.59
2023-01-30T02:43:53.444Z,1007.58
2023-01-30T02:44:53.430Z,1007.55
2023-01-30T02:45:53.450Z,1007.56
2023-01-30T02:46:53.415Z,1007.57
2023-01-30T02:47:53.423Z,1007.49
2023-01-30T02:48:53.388Z,1007.50
2023-01-30T02:49:53.406Z,1007.50
2023-01-30T02:50:53.383Z,1007.55
2023-01-30T02:51:53.389Z,1007.49
2023-01-30T02:52:53.342Z,1007.53
2023-01-30T02:53:53.340Z,1007.46
2023-01-30T02:54:53.319Z,1007.32
2023-01-30T02:55:53.314Z,1007.24
2023-01-30T02:56:53.330Z,1007.33
2023-01-30T02:57:53.288Z,1007.25
2023-01-30T02:58:53.283Z,1007.40
2023-01-30T02:59:53.274Z,1007.46
2023-01-30T03:00:53.254Z,1007.34
2023-01-30T03:01:53.267Z,1007.48
2023-01-30T03:02:53.261Z,1007.41
2023-01-30T03:03:53.226Z,1007.43
2023-01-30T03:04:53.213Z,1007.33
2023-01-30T03:05:53.206Z,1007.36
2023-01-30T03:06:53.199Z,1007.38
2023-01-30T03:07:53.185Z,1007.28
2023-01-30T03:08:53.165Z,1007.24
2023-01-30T03:09:53.167Z,1007.30
2023-01-30T03:10:53.147Z,1007.22
2023-01-30T03:11:53.151Z,1007.25
2023-01-30T03:12:53.130Z,1007.36
2023-01-30T03:13:53.116Z,1007.15
2023-01-30T03:14:53.102Z,1007.25
2023-01-30T03:15:53.211Z,1007.29
2023-01-30T03:16:53.101Z,1007.21
2023-01-30T03:17:53.686Z,1007.25
2023-01-30T03:18:53.066Z,1007.16
2023-01-30T03:19:53.057Z,1007.18
2023-01-30T03:20:53.032Z,1007.14
2023-01-30T03:21:53.026Z,1007.14
2023-01-30T03:22:53.025Z,1007.09
2023-01-30T03:23:53.021Z,1007.07
2023-01-30T03:24:53.001Z,1006.99
2023-01-30T03:25:52.981Z,1006.98
2023-01-30T03:26:52.974Z,1007.00
2023-01-30T03:27:52.976Z,1007.04
2023-01-30T03:28:52.958Z,1007.00
2023-01-30T03:29:52.940Z,1007.07
2023-01-30T03:30:53.004Z,1007.06
2023-01-30T03:31:52.988Z,1006.92
2023-01-30T03:32:52.910Z,1006.76
2023-01-30T03:33:52.897Z,1006.83
2023-01-30T03:34:52.882Z,1006.93
2023-01-30T03:35:52.881Z,1006.78
2023-01-30T03:36:52.857Z,1006.81
2023-01-30T03:37:52.880Z,1006.80
2023-01-30T03:38:52.880Z,1006.84
2023-01-30T03:39:52.830Z,1006.80
2023-01-30T03:40:52.814Z,1006.69
2023-01-30T03:41:52.808Z,1006.70
2023-01-30T03:42:52.802Z,1006.75
2023-01-30T03:43:52.789Z,1006.65
2023-01-30T03:44:52.767Z,1006.68
2023-01-30T03:45:52.786Z,1006.75
2023-01-30T03:46:52.758Z,1006.72
2023-01-30T03:47:52.754Z,1006.54
2023-01-30T03:48:52.725Z,1006.66
2023-01-30T03:49:52.723Z,1006.54
2023-01-30T03:50:52.702Z,1006.62
2023-01-30T03:51:52.698Z,1006.61
2023-01-30T03:52:52.691Z,1006.56
2023-01-30T03:53:52.680Z,1006.60
2023-01-30T03:54:52.684Z,1006.58
2023-01-30T03:55:52.651Z,1006.62
2023-01-30T03:56:52.640Z,1006.53
2023-01-30T03:57:52.638Z,1006.47
2023-01-30T03:58:52.620Z,1006.46
2023-01-30T03:59:52.609Z,1006.36
2023-01-30T04:00:52.630Z,1006.34
2023-01-30T04:01:52.585Z,1006.37
2023-01-30T04:02:52.583Z,1006.27
2023-01-30T04:03:52.564Z,1006.43
2023-01-30T04:04:52.549Z,1006.39
2023-01-30T04:05:52.544Z,1006.40
2023-01-30T04:06:52.526Z,1006.32
2023-01-30T04:07:52.530Z,1006.35
2023-01-30T04:08:52.507Z,1006.34
2023-01-30T04:09:52.506Z,1006.44
2023-01-30T04:10:52.483Z,1006.53
2023-01-30T04:11:52.480Z,1006.49
2023-01-30T04:12:52.474Z,1006.53
2023-01-30T04:13:52.458Z,1006.59
2023-01-30T04:14:52.444Z,1006.50
2023-01-30T04:15:52.461Z,1006.43
2023-01-30T04:16:52.452Z,1006.34
2023-01-30T04:17:52.430Z,1006.44
2023-01-30T04:18:52.411Z,1006.44
2023-01-30T04:19:52.395Z,1005.83
2023-01-30T04:20:52.382Z,1006.27
2023-01-30T04:21:52.390Z,1006.19
2023-01-30T04:22:52.362Z,1006.36
2023-01-30T04:23:52.346Z,1006.42
2023-01-30T04:24:52.331Z,1006.43
2023-01-30T04:25:52.324Z,1006.36
2023-01-30T04:26:52.310Z,1006.50
2023-01-30T04:27:52.325Z,1006.57
2023-01-30T04:28:52.285Z,1006.53
2023-01-30T04:29:52.291Z,1006.51
2023-01-30T04:30:52.307Z,1006.50
2023-01-30T04:31:52.259Z,1006.41
2023-01-30T04:32:52.260Z,1006.54
2023-01-30T04:33:52.280Z,1006.37
2023-01-30T04:34:52.221Z,1006.41
2023-01-30T04:35:52.222Z,1006.36
2023-01-30T04:36:52.216Z,1006.20
2023-01-30T04:37:52.192Z,1006.46
2023-01-30T04:38:52.187Z,1006.43
2023-01-30T04:39:52.177Z,1006.46
2023-01-30T04:40:52.156Z,1006.31
2023-01-30T04:41:52.174Z,1006.42
2023-01-30T04:42:52.145Z,1006.39
2023-01-30T04:43:54.679Z,1006.41
2023-01-30T04:44:52.117Z,1006.39
2023-01-30T04:45:52.105Z,1006.43
2023-01-30T04:46:52.128Z,1006.41
2023-01-30T04:47:52.295Z,1006.38
2023-01-30T04:48:52.096Z,1006.35
2023-01-30T04:49:52.063Z,1006.39
2023-01-30T04:50:52.051Z,1006.41
2023-01-30T04:51:52.036Z,1006.36
2023-01-30T04:52:52.071Z,1006.31
2023-01-30T04:53:52.022Z,1006.29
2023-01-30T04:54:52.008Z,1006.20
2023-01-30T04:55:51.995Z,1006.22
2023-01-30T04:56:51.991Z,1006.22
2023-01-30T04:57:51.972Z,1006.22
2023-01-30T04:58:51.983Z,1006.19
2023-01-30T04:59:51.948Z,1006.20
2023-01-30T05:00:51.971Z,1006.20
2023-01-30T05:01:51.955Z,1006.14
2023-01-30T05:02:51.928Z,1006.07
2023-01-30T05:03:51.912Z,1006.12
2023-01-30T05:04:51.899Z,1006.15
2023-01-30T05:05:51.888Z,1006.18
2023-01-30T05:06:51.876Z,1006.22
2023-01-30T05:07:51.861Z,1006.19
2023-01-30T05:08:51.866Z,1006.19
2023-01-30T05:09:51.838Z,1006.15
2023-01-30T05:10:51.831Z,1006.07
2023-01-30T05:11:51.831Z,1006.11
2023-01-30T05:12:51.809Z,1006.15
2023-01-30T05:13:51.807Z,1006.07
2023-01-30T05:14:51.786Z,1006.16
2023-01-30T05:15:51.774Z,1006.19
2023-01-30T05:16:51.790Z,1006.16
2023-01-30T05:17:51.752Z,1006.14
2023-01-30T05:18:51.755Z,1006.08
2023-01-30T05:19:51.729Z,1006.02
2023-01-30T05:20:51.723Z,1006.03
2023-01-30T05:21:51.714Z,1006.14
2023-01-30T05:22:51.701Z,1006.11
2023-01-30T05:23:51.697Z,1006.12
2023-01-30T05:24:51.683Z,1006.26
2023-01-30T05:25:51.664Z,1006.30
2023-01-30T05:26:51.658Z,1006.19
2023-01-30T05:27:51.641Z,1006.19
2023-01-30T05:28:51.648Z,1006.19
2023-01-30T05:29:51.632Z,1006.23
2023-01-30T05:30:51.645Z,1006.19
2023-01-30T05:31:51.671Z,1006.19
2023-01-30T05:32:51.585Z,1006.25
2023-01-30T05:33:51.588Z,1006.24
2023-01-30T05:34:51.564Z,1006.18
2023-01-30T05:35:51.560Z,1006.13
2023-01-30T05:36:51.545Z,1006.12
2023-01-30T05:37:51.548Z,1006.10
2023-01-30T05:38:51.534Z,1006.18
2023-01-30T05:39:51.554Z,1006.12
2023-01-30T05:40:51.500Z,1006.26
2023-01-30T05:41:51.497Z,1006.29
2023-01-30T05:42:51.478Z,1006.34
2023-01-30T05:43:51.491Z,1006.38
2023-01-30T05:44:51.463Z,1006.48
2023-01-30T05:45:51.453Z,1006.50
2023-01-30T05:46:51.504Z,1006.39
2023-01-30T05:47:51.428Z,1006.37
2023-01-30T05:48:51.420Z,1006.11
2023-01-30T05:49:51.406Z,1006.25
2023-01-30T05:50:51.393Z,1006.23
2023-01-30T05:51:51.738Z,1006.29
2023-01-30T05:52:51.365Z,1006.29
2023-01-30T05:53:51.371Z,1006.27
2023-01-30T05:54:51.349Z,1006.21
2023-01-30T05:55:51.339Z,1006.22
2023-01-30T05:56:51.339Z,1006.24
2023-01-30T05:57:51.318Z,1006.19
2023-01-30T05:58:51.311Z,1006.26
2023-01-30T05:59:51.299Z,1006.27
2023-01-30T06:00:51.281Z,1006.24
2023-01-30T06:01:51.271Z,1006.38
2023-01-30T06:02:51.274Z,1006.36
2023-01-30T06:03:51.424Z,1006.27
2023-01-30T06:04:51.233Z,1006.23
2023-01-30T06:05:51.231Z,1006.21
2023-01-30T06:06:51.214Z,1006.19
2023-01-30T06:07:51.211Z,1006.16
2023-01-30T06:08:51.191Z,1006.20
2023-01-30T06:09:51.194Z,1006.22
2023-01-30T06:10:51.170Z,1006.20
2023-01-30T06:11:51.787Z,1006.22
2023-01-30T06:12:51.152Z,1006.19
2023-01-30T06:13:51.140Z,1006.25
2023-01-30T06:14:51.135Z,1006.29
2023-01-30T06:15:51.135Z,1006.26
2023-01-30T06:16:51.170Z,1006.23
2023-01-30T06:17:51.114Z,1006.35
2023-01-30T06:18:51.086Z,1006.35
2023-01-30T06:19:51.085Z,1006.37
2023-01-30T06:20:51.062Z,1006.37
2023-01-30T06:21:51.065Z,1006.33
2023-01-30T06:22:51.042Z,1006.31
2023-01-30T06:23:51.033Z,1006.30
2023-01-30T06:24:51.027Z,1006.32
2023-01-30T06:25:51.011Z,1006.41
2023-01-30T06:26:51.033Z,1006.34
2023-01-30T06:27:50.987Z,1006.38
2023-01-30T06:28:50.972Z,1006.54
2023-01-30T06:29:50.974Z,1006.44
2023-01-30T06:30:51.054Z,1006.44
2023-01-30T06:31:50.945Z,1006.44
2023-01-30T06:32:50.933Z,1006.54
2023-01-30T06:33:50.922Z,1006.57
2023-01-30T06:34:50.918Z,1006.53
2023-01-30T06:35:50.951Z,1006.45
2023-01-30T06:36:50.918Z,1006.51
2023-01-30T06:37:50.879Z,1006.53
2023-01-30T06:38:50.868Z,1006.52
2023-01-30T06:39:50.868Z,1006.58
2023-01-30T06:40:50.847Z,1006.61
2023-01-30T06:41:50.832Z,1006.53
2023-01-30T06:42:50.829Z,1006.64
2023-01-30T06:43:50.814Z,1006.71
2023-01-30T06:44:50.830Z,1006.56
2023-01-30T06:45:50.841Z,1006.60
2023-01-30T06:46:50.777Z,1006.68
2023-01-30T06:47:50.771Z,1006.74
2023-01-30T06:48:50.756Z,1006.71
2023-01-30T06:49:50.756Z,1006.76
2023-01-30T06:50:50.731Z,1006.63
2023-01-30T06:51:50.726Z,1006.70
2023-01-30T06:52:50.723Z,1006.70
2023-01-30T06:53:52.442Z,1006.68
2023-01-30T06:54:50.700Z,1006.65
2023-01-30T06:55:50.685Z,1006.66
2023-01-30T06:56:50.669Z,1006.67
2023-01-30T06:57:50.662Z,1006.62
2023-01-30T06:58:50.644Z,1006.64
2023-01-30T06:59:50.655Z,1006.79
2023-01-30T07:00:50.624Z,1006.73
2023-01-30T07:01:50.643Z,1006.80
2023-01-30T07:02:50.602Z,1006.80
2023-01-30T07:03:50.608Z,1006.80
2023-01-30T07:04:50.589Z,1006.71
2023-01-30T07:05:50.571Z,1006.76
2023-01-30T07:06:50.560Z,1006.59
2023-01-30T07:07:50.548Z,1006.66
2023-01-30T07:08:50.542Z,1006.50
2023-01-30T07:10:02.285Z,1006.55
2023-01-30T07:10:50.536Z,1006.55
2023-01-30T07:11:50.503Z,1006.61
2023-01-30T07:12:50.491Z,1006.58
2023-01-30T07:13:50.488Z,1006.67
2023-01-30T07:14:50.476Z,1006.65
2023-01-30T07:15:50.471Z,1006.68
2023-01-30T07:16:50.585Z,1006.64
2023-01-30T07:17:50.443Z,1006.65
2023-01-30T07:18:50.446Z,1006.79
2023-01-30T07:19:50.451Z,1006.81
2023-01-30T07:20:50.456Z,1006.74
2023-01-30T07:21:50.396Z,1006.87
2023-01-30T07:22:50.401Z,1006.77
2023-01-30T07:23:50.378Z,1006.91
2023-01-30T07:24:51.242Z,1006.86
2023-01-30T07:25:50.426Z,1006.87
2023-01-30T07:26:50.338Z,1006.87
2023-01-30T07:27:50.332Z,1006.98
2023-01-30T07:28:50.318Z,1006.99
2023-01-30T07:29:51.905Z,1006.98
2023-01-30T07:30:50.339Z,1007.04
2023-01-30T07:31:50.375Z,1007.04
2023-01-30T07:32:50.285Z,1007.01
2023-01-30T07:33:50.276Z,1007.00
2023-01-30T07:34:50.273Z,1007.15
2023-01-30T07:35:50.252Z,1007.19
2023-01-30T07:36:50.228Z,1007.18
2023-01-30T07:37:50.254Z,1007.16
2023-01-30T07:38:50.214Z,1007.25
2023-01-30T07:39:50.205Z,1007.14
2023-01-30T07:40:50.226Z,1007.19
2023-01-30T07:41:50.240Z,1007.13
2023-01-30T07:42:50.167Z,1007.18
2023-01-30T07:43:50.194Z,1007.15
2023-01-30T07:44:50.144Z,1007.17
2023-01-30T07:45:50.149Z,1007.19
2023-01-30T07:46:50.184Z,1007.13
2023-01-30T07:47:50.111Z,1007.22
2023-01-30T07:48:50.113Z,1007.19
2023-01-30T07:49:50.094Z,1007.17
2023-01-30T07:50:50.089Z,1007.12
2023-01-30T07:51:50.096Z,1007.27
2023-01-30T07:52:50.078Z,1007.23
2023-01-30T07:53:50.072Z,1007.16
2023-01-30T07:54:50.048Z,1007.25
2023-01-30T07:55:50.043Z,1007.13
2023-01-30T07:56:50.021Z,1007.21
2023-01-30T07:57:50.031Z,1007.23
2023-01-30T07:58:49.987Z,1007.22
2023-01-30T07:59:49.990Z,1007.12
2023-01-30T08:00:50.050Z,1007.19
2023-01-30T08:01:49.985Z,1007.24
2023-01-30T08:02:49.978Z,1007.27
2023-01-30T08:03:49.936Z,1007.23
2023-01-30T08:04:49.953Z,1007.34
2023-01-30T08:05:49.932Z,1007.29
2023-01-30T08:06:49.908Z,1007.20
2023-01-30T08:07:49.904Z,1007.21
2023-01-30T08:08:49.881Z,1007.22
2023-01-30T08:09:49.875Z,1007.24
2023-01-30T08:10:49.867Z,1007.20
2023-01-30T08:11:49.855Z,1007.23
2023-01-30T08:12:49.835Z,1007.19
2023-01-30T08:13:49.832Z,1007.25
2023-01-30T08:14:49.856Z,1007.27
2023-01-30T08:15:49.819Z,1007.23
2023-01-30T08:16:49.854Z,1007.20
2023-01-30T08:17:49.782Z,1007.18
2023-01-30T08:18:49.769Z,1007.13
2023-01-30T08:19:49.772Z,1007.22
2023-01-30T08:20:49.765Z,1007.31
2023-01-30T08:21:49.743Z,1007.26
2023-01-30T08:22:49.747Z,1007.24
2023-01-30T08:23:49.732Z,1007.21
2023-01-30T08:24:49.704Z,1007.24
2023-01-30T08:25:49.718Z,1007.24
2023-01-30T08:26:49.755Z,1007.26
2023-01-30T08:27:49.676Z,1007.24
2023-01-30T08:28:49.661Z,1007.30
2023-01-30T08:29:49.688Z,1007.39
2023-01-30T08:30:49.782Z,1007.33
2023-01-30T08:31:49.650Z,1007.42
2023-01-30T08:32:49.622Z,1007.35
2023-01-30T08:33:49.609Z,1007.36
2023-01-30T08:34:49.608Z,1007.30
2023-01-30T08:35:49.616Z,1007.46
2023-01-30T08:36:49.585Z,1007.34
2023-01-30T08:37:49.573Z,1007.41
2023-01-30T08:38:49.557Z,1007.20
2023-01-30T08:39:49.542Z,1007.37
2023-01-30T08:40:49.544Z,1007.31
2023-01-30T08:41:49.534Z,1007.32
2023-01-30T08:42:49.518Z,1007.28
2023-01-30T08:43:49.504Z,1007.34
2023-01-30T08:44:49.497Z,1007.24
2023-01-30T08:45:49.488Z,1007.26
2023-01-30T08:46:49.524Z,1007.26
2023-01-30T08:47:49.467Z,1007.23
2023-01-30T08:48:50.459Z,1007.30
2023-01-30T08:49:49.458Z,1007.28
2023-01-30T08:50:49.455Z,1007.38
2023-01-30T08:51:49.461Z,1007.46
2023-01-30T08:52:49.417Z,1007.32
2023-01-30T08:53:49.398Z,1007.32
2023-01-30T08:54:49.397Z,1007.34
2023-01-30T08:55:49.368Z,1007.36
2023-01-30T08:56:49.392Z,1007.37
2023-01-30T08:57:49.349Z,1007.40
2023-01-30T08:58:49.353Z,1007.44
2023-01-30T08:59:49.327Z,1007.42
2023-01-30T09:00:49.425Z,1007.42
2023-01-30T09:01:49.319Z,1007.43
2023-01-30T09:02:49.433Z,1007.44
2023-01-30T09:03:49.288Z,1007.46
2023-01-30T09:04:49.276Z,1007.45
2023-01-30T09:05:49.263Z,1007.46
2023-01-30T09:06:49.261Z,1007.53
2023-01-30T09:07:49.239Z,1007.40
2023-01-30T09:08:49.252Z,1007.35
2023-01-30T09:09:49.235Z,1007.33
2023-01-30T09:10:49.200Z,1007.22
2023-01-30T09:11:49.208Z,1007.30
2023-01-30T09:12:49.180Z,1007.32
2023-01-30T09:13:49.906Z,1007.36
2023-01-30T09:14:49.161Z,1007.23
2023-01-30T09:15:55.721Z,1007.21
2023-01-30T09:16:57.216Z,1007.13
2023-01-30T09:17:49.130Z,1007.28
2023-01-30T09:18:49.122Z,1007.20
2023-01-30T09:19:49.112Z,1007.11
2023-01-30T09:20:49.118Z,1007.23
2023-01-30T09:21:49.115Z,1007.20
2023-01-30T09:22:49.070Z,1007.14
2023-01-30T09:23:49.148Z,1007.25
2023-01-30T09:24:49.050Z,1007.32
2023-01-30T09:25:49.044Z,1007.37
2023-01-30T09:26:49.083Z,1007.40
2023-01-30T09:27:49.032Z,1007.33
2023-01-30T09:28:49.008Z,1007.41
2023-01-30T09:29:49.006Z,1007.40
2023-01-30T09:30:49.110Z,1007.41
2023-01-30T09:31:49.027Z,1007.27
2023-01-30T09:32:48.967Z,1007.49
2023-01-30T09:33:48.964Z,1007.46
2023-01-30T09:34:48.941Z,1007.42
2023-01-30T09:35:48.932Z,1007.49
2023-01-30T09:36:48.945Z,1007.58
2023-01-30T09:37:48.913Z,1007.52
2023-01-30T09:38:48.927Z,1007.52
2023-01-30T09:39:55.436Z,1007.59
2023-01-30T09:40:48.876Z,1007.66
2023-01-30T09:41:48.877Z,1007.55
2023-01-30T09:42:48.875Z,1007.47
2023-01-30T09:43:48.911Z,1007.62
2023-01-30T09:44:48.829Z,1007.54
2023-01-30T09:45:48.869Z,1007.72
2023-01-30T09:46:48.925Z,1007.61
2023-01-30T09:47:48.859Z,1007.61
2023-01-30T09:48:48.789Z,1007.56
2023-01-30T09:49:48.781Z,1007.52
2023-01-30T09:50:48.922Z,1007.54
2023-01-30T09:51:48.766Z,1007.45
2023-01-30T09:52:48.774Z,1007.54
2023-01-30T09:53:48.731Z,1007.60
2023-01-30T09:54:48.765Z,1007.53
2023-01-30T09:55:48.709Z,1007.58
2023-01-30T09:56:48.704Z,1007.67
2023-01-30T09:57:48.738Z,1007.55
2023-01-30T09:58:48.711Z,1007.62
2023-01-30T09:59:48.675Z,1007.75
2023-01-30T10:00:48.652Z,1007.73
2023-01-30T10:01:48.661Z,1007.62
2023-01-30T10:02:48.635Z,1007.65
2023-01-30T10:03:48.630Z,1007.69
2023-01-30T10:05:00.457Z,1007.69
2023-01-30T10:05:48.618Z,1007.68
2023-01-30T10:06:48.597Z,1007.68
2023-01-30T10:07:48.624Z,1007.67
2023-01-30T10:08:48.564Z,1007.82
2023-01-30T10:09:48.559Z,1007.75
2023-01-30T10:10:55.044Z,1007.76
2023-01-30T10:11:48.557Z,1007.68
2023-01-30T10:12:48.521Z,1007.65
2023-01-30T10:13:48.541Z,1007.73
2023-01-30T10:14:48.505Z,1007.69
2023-01-30T10:15:48.637Z,1007.67
2023-01-30T10:16:48.488Z,1007.79
2023-01-30T10:17:48.465Z,1007.69
2023-01-30T10:18:48.477Z,1007.70
2023-01-30T10:19:48.446Z,1007.57
2023-01-30T10:20:48.451Z,1007.64
2023-01-30T10:21:48.464Z,1007.71
2023-01-30T10:22:48.476Z,1007.61
2023-01-30T10:23:48.411Z,1007.47
2023-01-30T10:24:48.385Z,1007.61
2023-01-30T10:25:48.417Z,1007.61
2023-01-30T10:26:48.419Z,1007.69
2023-01-30T10:27:48.369Z,1007.58
2023-01-30T10:28:55.502Z,1007.63
2023-01-30T10:29:48.365Z,1007.58
2023-01-30T10:30:48.420Z,1007.57
2023-01-30T10:31:48.361Z,1007.55
2023-01-30T10:32:48.297Z,1007.70
2023-01-30T10:33:48.424Z,1007.60
2023-01-30T10:34:48.343Z,1007.51
2023-01-30T10:35:48.319Z,1007.63
2023-01-30T10:36:48.271Z,1007.55
2023-01-30T10:37:48.245Z,1007.69
2023-01-30T10:38:48.242Z,1007.68
2023-01-30T10:39:54.853Z,1007.63
2023-01-30T10:40:48.249Z,1007.78
2023-01-30T10:41:48.209Z,1007.79
2023-01-30T10:42:48.204Z,1007.84
2023-01-30T10:43:48.180Z,1007.77
2023-01-30T10:44:48.170Z,1007.87
2023-01-30T10:45:48.200Z,1007.79
2023-01-30T10:46:48.686Z,1007.85
2023-01-30T10:47:48.310Z,1007.88
2023-01-30T10:48:48.124Z,1007.82
2023-01-30T10:49:48.115Z,1007.84
2023-01-30T10:50:48.105Z,1007.83
2023-01-30T10:51:48.098Z,1007.82
2023-01-30T10:52:48.088Z,1007.74
2023-01-30T10:53:48.069Z,1007.74
2023-01-30T10:54:48.059Z,1007.77
2023-01-30T10:55:48.067Z,1007.65
2023-01-30T10:56:48.053Z,1007.68
2023-01-30T10:57:48.039Z,1007.74
2023-01-30T10:58:48.149Z,1007.73
2023-01-30T10:59:48.174Z,1007.76
2023-01-30T11:00:48.104Z,1007.70
2023-01-30T11:01:48.021Z,1007.78
2023-01-30T11:02:50.747Z,1007.73
2023-01-30T11:03:47.966Z,1007.57
2023-01-30T11:04:47.946Z,1007.74
2023-01-30T11:05:47.941Z,1007.66
2023-01-30T11:06:47.921Z,1007.68
2023-01-30T11:07:47.927Z,1007.72
2023-01-30T11:08:47.899Z,1007.62
2023-01-30T11:09:47.913Z,1007.69
2023-01-30T11:10:47.878Z,1007.74
2023-01-30T11:11:47.872Z,1007.76
2023-01-30T11:12:47.944Z,1007.79
2023-01-30T11:13:47.848Z,1007.81
2023-01-30T11:14:47.879Z,1007.84
2023-01-30T11:15:47.898Z,1007.67
2023-01-30T11:16:47.834Z,1007.76
2023-01-30T11:17:47.874Z,1007.77
2023-01-30T11:19:47.788Z,1007.70
2023-01-30T11:20:48.144Z,1007.74
2023-01-30T11:21:47.775Z,1007.65
2023-01-30T11:22:47.764Z,1007.72
2023-01-30T11:23:47.741Z,1007.67
2023-01-30T11:24:47.732Z,1007.70
2023-01-30T11:25:47.720Z,1007.72
2023-01-30T11:26:48.676Z,1007.75
2023-01-30T11:27:47.707Z,1007.76
2023-01-30T11:28:49.022Z,1007.77
2023-01-30T11:29:47.833Z,1007.72
2023-01-30T11:30:47.867Z,1007.79
2023-01-30T11:31:47.817Z,1007.69
2023-01-30T11:32:47.928Z,1007.67
2023-01-30T11:33:47.638Z,1007.73
2023-01-30T11:34:47.616Z,1007.80
2023-01-30T11:35:47.623Z,1007.67
2023-01-30T11:36:47.597Z,1007.65
2023-01-30T11:37:47.599Z,1007.64
2023-01-30T11:38:47.573Z,1007.67
2023-01-30T11:39:47.563Z,1007.67
2023-01-30T11:40:47.549Z,1007.72
2023-01-30T11:41:47.540Z,1007.71
2023-01-30T11:42:47.564Z,1007.45
2023-01-30T11:43:47.533Z,1007.64
2023-01-30T11:44:47.944Z,1007.77
2023-01-30T11:45:47.650Z,1007.59
2023-01-30T11:46:47.589Z,1007.66
2023-01-30T11:47:54.255Z,1007.68
2023-01-30T11:49:04.378Z,1007.70
2023-01-30T11:51:31.975Z,1007.71
2023-01-30T11:51:36.675Z,1007.64
2023-01-30T11:51:47.550Z,1007.87
2023-01-30T11:52:47.507Z,1007.77
2023-01-30T11:53:47.442Z,1007.64
2023-01-30T11:54:47.577Z,1007.75
2023-01-30T11:56:02.264Z,1007.86
2023-01-30T11:56:47.440Z,1007.71
2023-01-30T11:57:47.476Z,1007.73
2023-01-30T11:58:47.508Z,1007.75
2023-01-30T11:59:47.350Z,1007.66
2023-01-30T12:00:47.343Z,1007.68
2023-01-30T12:01:47.434Z,1007.64
2023-01-30T12:02:47.340Z,1007.71
2023-01-30T12:03:47.316Z,1007.61
2023-01-30T12:04:47.305Z,1007.59
2023-01-30T12:05:47.289Z,1007.62
2023-01-30T12:06:47.269Z,1007.55
2023-01-30T12:07:47.275Z,1007.65
2023-01-30T12:08:47.270Z,1007.58
2023-01-30T12:09:47.236Z,1007.65